Hoek Van Holland, Netherlands

9:24 PM CEST on September 01, 2014 (GMT +0200)
Hoek van Holland | Change Station
CLOSE
Current Station
Personal Weather Station
Location: Hoek Van Holland, ZUID-HOLLAND
Elevation: 3 ft
Nearby Weather Stations

Elev 3 ft 51.98 °N, 4.15 °E | Updated 55 seconds ago

Mostly Cloudy
Mostly Cloudy
65.5 °F
Feels Like 65.5 °F
N
0.0
Wind Variable Wind from WNW
Gusts 1.0 mph

Today
High -- | Low -- °F
--% Chance of Precip.
Yesterday
High -- | Low -- °F
Precip. -- in
6:55 AM 8:31 PM
Waxing Crescent, 43% visible
Pressure 30.12 in
Visibility 6.2 miles
Clouds Few 4100 ft
Mostly Cloudy 4600 ft
Dew Point 58 °F
Humidity 77%
Rainfall 0.00 in
Snow Depth Not available.
UV 0 out of 12
Pollen Not available.
Air Quality Not available.
Flu Activity Not available.
METAR EHRD 011855Z AUTO VRB02KT 9999 FEW041 BKN046 16/13 Q1020 NOSIG

More Conditions Fewer Conditions

Pressure 30.12 in
Visibility 6.2 miles
Clouds Few 4100 ft
Mostly Cloudy 4600 ft
Dew Point 58 °F
Humidity 77%
Rainfall 0.00 in
Snow Depth Not available.
UV 0 out of 12
Pollen Not available.
Air Quality Not available.
Flu Activity Not available.
METAR EHRD 011855Z AUTO VRB02KT 9999 FEW041 BKN046 16/13 Q1020 NOSIG

More Conditions Fewer Conditions

10-Day Weather Forecast

Almanac

Astronomy

Sep. 01, 2014 Rise Set
Actual Time 6:55 AM CEST 8:31 PM CEST
Civil Twilight 6:19 AM CEST 9:06 PM CEST
Nautical Twilight 5:36 AM CEST 9:49 PM CEST
Astronomical Twilight 4:47 AM CEST 10:37 PM CEST
Moon 2:14 PM CEST 11:29 PM CEST
Length of Visible Light 14h 46m
Length of Day
13h 35m
Tomorrow will be 3m 52s shorter.
Waxing Crescent, 43% of the Moon is Illuminated
Today
Waxing Crescent
Sep 2
First Quarter
Sep 8
Full
Sep 15
Last Quarter
Sep 24
New

Today's Extremes

Country Highs Country Lows

Community

WunderPhotos

Upload Photos

1,749,378 photos uploaded!

WunderBlogs® & News

Nearby

Snow Depth

Not available.

Earthquake Activity

City Distance Mag. Time & Date
No recent earthquake activity has been reported nearby.
Minimum magnitude displayed is 2.5.

Coastal Water Temperatures

Place Temperature
No Stations Reporting

Nearby Weather Stations